Portada
METAR-TAF:

METAR-TAF

Aeropuertos :

Istres, Francia

latitud: 43-31N, longitud: 004-56E, altitud: 23 m

Observación

El informe se hizo hace 11 minutos, a las 20:30 UTC
Viento 13 kt del sur-sureste
Temperatura 19°C
Humedad 78%
Presión 1019 hPa
Visibilidad 10 km o más
sin nubes por debajo de 1500 m y sin presencia de cumulonimbus.

METAR: LFMI 202030Z AUTO 15013KT CAVOK 19/15 Q1019 NOSIG

Hora: 22:41 (20:41 UTC)

Pronóstico

El informe se hizo hace 6 horas y 41 minutos, a las 14:00 UTC
Pronóstico válido del 20 a las 15 UTC al 21 a las 15 UTC
Viento 14 kt del sur-sureste
Visibilidad 10 km o más
Escasas nubes a una altura de 3000 ft
Temporalmente
del 21 a las 02 UTC al 21 a las 07 UTC
Visibilidad: 4000 m
lluvia
Evolucionando progresivamente
del 21 a las 07 UTC al 21 a las 08 UTC
Viento 10 kt del noroeste

TAF: LFMI 201400Z 2015/2115 15014KT 9999 FEW030 TX21/2113Z TN17/2106Z TEMPO 2102/2107 4000 RA BECMG 2107/2108 32010KT

Observaciones y pronósticos meteorológicos de más de 4000 aeropuertos (mensajes METAR y TAF).

Los puntos amarillos y rojos representan las estaciones disponibles.

Ponga el ratón en el punto deseado para ver el nombre de la estación.

Haga clic para ver las observaciones y los pronósticos meteorológicos.

Para cambiar el mapa : haga clic en los botones verdes con una cruz de color negro para hacer un zoom, en el botón verde con un guión para alejar o en las flechas verdes para mapas adyacentes.


METAR-TAF: